createdAt,value
2023-01-13T00:00:43.878Z,86.36
2023-01-13T00:03:10.437Z,86.29
2023-01-13T00:05:36.953Z,86.36
2023-01-13T00:08:03.494Z,86.14
2023-01-13T00:10:30.028Z,86.27
2023-01-13T00:12:56.544Z,86.05
2023-01-13T00:15:23.069Z,86.33
2023-01-13T00:17:49.808Z,85.88
2023-01-13T00:20:16.331Z,85.94
2023-01-13T00:22:42.844Z,86.10
2023-01-13T00:25:09.376Z,86.20
2023-01-13T00:27:35.900Z,86.12
2023-01-13T00:30:02.613Z,86.22
2023-01-13T00:32:29.120Z,86.07
2023-01-13T00:34:55.844Z,86.36
2023-01-13T00:37:22.363Z,86.29
2023-01-13T00:39:48.863Z,86.20
2023-01-13T00:42:15.393Z,86.43
2023-01-13T00:44:41.918Z,86.63
2023-01-13T00:47:08.419Z,86.83
2023-01-13T00:49:34.943Z,86.90
2023-01-13T00:52:01.473Z,86.97
2023-01-13T00:54:28.035Z,86.67
2023-01-13T00:56:54.549Z,86.75
2023-01-13T00:59:21.095Z,86.29
2023-01-13T01:01:47.732Z,86.24
2023-01-13T01:04:14.339Z,86.09
2023-01-13T01:06:40.877Z,85.89
2023-01-13T01:09:07.390Z,85.92
2023-01-13T01:11:33.899Z,86.19
2023-01-13T01:14:00.411Z,86.29
2023-01-13T01:16:26.976Z,86.09
2023-01-13T01:18:53.530Z,85.99
2023-01-13T01:21:20.051Z,85.99
2023-01-13T01:23:46.560Z,86.26
2023-01-13T01:26:13.088Z,86.07
2023-01-13T01:28:39.605Z,85.99
2023-01-13T01:31:06.184Z,85.89
2023-01-13T01:33:32.734Z,86.22
2023-01-13T01:35:59.236Z,86.44
2023-01-13T01:38:25.751Z,86.51
2023-01-13T01:40:52.268Z,86.59
2023-01-13T01:43:18.797Z,86.89
2023-01-13T01:45:45.535Z,86.86
2023-01-13T01:48:12.050Z,86.34
2023-01-13T01:50:38.605Z,86.45
2023-01-13T01:53:05.126Z,86.52
2023-01-13T01:55:31.638Z,86.76
2023-01-13T01:57:58.155Z,87.11
2023-01-13T02:00:24.657Z,87.18
2023-01-13T02:02:51.386Z,87.14
2023-01-13T02:05:17.895Z,87.20
2023-01-13T02:07:44.431Z,86.78
2023-01-13T02:10:10.944Z,86.74
2023-01-13T02:12:37.666Z,86.73
2023-01-13T02:15:04.173Z,86.82
2023-01-13T02:17:30.689Z,86.72
2023-01-13T02:19:57.204Z,86.59
2023-01-13T02:22:23.738Z,86.68
2023-01-13T02:24:50.257Z,86.91
2023-01-13T02:27:17.008Z,86.94
2023-01-13T02:29:43.526Z,86.94
2023-01-13T02:32:10.048Z,86.92
2023-01-13T02:34:36.776Z,86.76
2023-01-13T02:37:03.289Z,86.68
2023-01-13T02:39:29.822Z,86.62
2023-01-13T02:41:56.379Z,86.39
2023-01-13T02:44:22.905Z,86.58
2023-01-13T02:46:49.422Z,86.55
2023-01-13T02:49:15.940Z,86.58
2023-01-13T02:51:42.662Z,86.38
2023-01-13T02:54:09.179Z,86.43
2023-01-13T02:56:35.710Z,86.34
2023-01-13T02:59:02.224Z,86.69
2023-01-13T03:01:28.681Z,86.97
2023-01-13T03:03:55.073Z,86.84
2023-01-13T03:06:21.631Z,86.58
2023-01-13T03:08:47.971Z,86.59
2023-01-13T03:11:14.318Z,86.46
2023-01-13T03:13:40.684Z,86.59
2023-01-13T03:16:07.032Z,86.59
2023-01-13T03:18:33.577Z,86.72
2023-01-13T03:20:59.901Z,87.17
2023-01-13T03:23:26.264Z,86.96
2023-01-13T03:25:52.599Z,86.97
2023-01-13T03:28:18.951Z,87.05
2023-01-13T03:30:45.346Z,86.68
2023-01-13T03:33:11.680Z,86.65
2023-01-13T03:35:38.002Z,86.55
2023-01-13T03:38:04.356Z,86.44
2023-01-13T03:40:30.726Z,86.34
2023-01-13T03:42:57.099Z,86.73
2023-01-13T03:45:23.454Z,86.65
2023-01-13T03:47:49.787Z,86.71
2023-01-13T03:50:16.333Z,86.60
2023-01-13T03:52:42.699Z,86.41
2023-01-13T03:55:09.031Z,86.45
2023-01-13T03:57:35.607Z,86.41
2023-01-13T04:00:01.970Z,86.52
2023-01-13T04:02:28.301Z,86.92
2023-01-13T04:04:54.651Z,86.77
2023-01-13T04:07:21.021Z,86.53
2023-01-13T04:09:47.396Z,86.56
2023-01-13T04:12:13.769Z,86.88
2023-01-13T04:14:40.109Z,86.84
2023-01-13T04:17:06.457Z,86.81
2023-01-13T04:19:32.824Z,86.86
2023-01-13T04:21:59.211Z,86.70
2023-01-13T04:24:25.541Z,86.70
2023-01-13T04:26:51.911Z,86.86
2023-01-13T04:29:18.455Z,86.69
2023-01-13T04:31:44.798Z,86.74
2023-01-13T04:34:11.158Z,86.63
2023-01-13T04:36:37.519Z,86.70
2023-01-13T04:39:03.853Z,86.78
2023-01-13T04:41:30.179Z,86.84
2023-01-13T04:43:56.545Z,86.89
2023-01-13T04:46:22.910Z,86.86
2023-01-13T04:48:49.260Z,86.96
2023-01-13T04:51:15.890Z,86.68
2023-01-13T04:53:42.452Z,86.60
2023-01-13T04:56:09.028Z,86.58
2023-01-13T04:58:36.348Z,86.78
2023-01-13T05:01:02.737Z,86.86
2023-01-13T05:03:29.361Z,86.77
2023-01-13T05:05:55.942Z,86.52
2023-01-13T05:08:22.306Z,86.51
2023-01-13T05:10:48.878Z,86.55
2023-01-13T05:13:15.234Z,86.82
2023-01-13T05:15:41.852Z,86.72
2023-01-13T05:18:08.462Z,86.51
2023-01-13T05:20:34.816Z,86.41
2023-01-13T05:23:01.158Z,86.47
2023-01-13T05:25:27.520Z,86.68
2023-01-13T05:27:54.133Z,86.62
2023-01-13T05:30:20.710Z,86.57
2023-01-13T05:32:47.276Z,86.69
2023-01-13T05:35:13.869Z,86.55
2023-01-13T05:37:40.322Z,86.41
2023-01-13T05:40:06.882Z,86.44
2023-01-13T05:42:33.225Z,86.46
2023-01-13T05:44:59.757Z,86.51
2023-01-13T05:47:26.108Z,86.46
2023-01-13T05:49:52.473Z,86.27
2023-01-13T05:52:18.807Z,86.28
2023-01-13T05:54:45.352Z,86.41
2023-01-13T05:57:11.679Z,86.41
2023-01-13T05:59:38.035Z,86.36
2023-01-13T06:02:04.358Z,86.53
2023-01-13T06:04:30.719Z,86.31
2023-01-13T06:06:57.321Z,86.35
2023-01-13T06:09:23.684Z,86.46
2023-01-13T06:11:50.049Z,86.54
2023-01-13T06:14:16.636Z,86.25
2023-01-13T06:16:42.972Z,86.37
2023-01-13T06:19:09.298Z,86.56
2023-01-13T06:21:35.908Z,86.39
2023-01-13T06:24:02.266Z,86.46
2023-01-13T06:26:28.615Z,86.60
2023-01-13T06:28:54.909Z,86.42
2023-01-13T06:31:21.347Z,86.60
2023-01-13T06:33:47.971Z,86.67
2023-01-13T06:36:14.332Z,86.57
2023-01-13T06:38:40.702Z,86.54
2023-01-13T06:41:07.083Z,86.59
2023-01-13T06:43:33.646Z,86.54
2023-01-13T06:46:00.027Z,86.51
2023-01-13T06:48:26.603Z,86.41
2023-01-13T06:50:52.967Z,86.81
2023-01-13T06:53:19.316Z,86.47
2023-01-13T06:55:45.678Z,86.52
2023-01-13T06:58:12.052Z,86.62
2023-01-13T07:00:38.455Z,86.61
2023-01-13T07:03:06.970Z,86.69
2023-01-13T07:05:33.691Z,86.52
2023-01-13T07:08:00.266Z,86.58
2023-01-13T07:10:26.619Z,86.57
2023-01-13T07:12:52.985Z,86.65
2023-01-13T07:15:19.315Z,86.89
2023-01-13T07:17:45.687Z,86.58
2023-01-13T07:20:12.035Z,86.54
2023-01-13T07:22:38.597Z,86.75
2023-01-13T07:25:04.951Z,86.75
2023-01-13T07:27:31.323Z,86.73
2023-01-13T07:29:57.877Z,86.79
2023-01-13T07:32:24.206Z,86.93
2023-01-13T07:34:50.538Z,86.77
2023-01-13T07:37:16.904Z,86.91
2023-01-13T07:39:43.474Z,86.86
2023-01-13T07:42:10.028Z,86.80
2023-01-13T07:44:36.587Z,86.78
2023-01-13T07:47:02.952Z,86.84
2023-01-13T07:49:29.541Z,86.86
2023-01-13T07:51:55.888Z,86.87
2023-01-13T07:54:35.123Z,86.95
2023-01-13T07:57:06.290Z,86.97
2023-01-13T07:59:33.307Z,87.08
2023-01-13T08:01:59.855Z,87.06
2023-01-13T08:04:26.293Z,86.73
2023-01-13T08:06:52.639Z,86.69
2023-01-13T08:09:19.021Z,86.81
2023-01-13T08:11:45.359Z,86.91
2023-01-13T08:14:11.923Z,86.91
2023-01-13T08:16:38.580Z,87.08
2023-01-13T08:19:05.249Z,87.03
2023-01-13T08:21:31.794Z,87.01
2023-01-13T08:23:58.152Z,87.16
2023-01-13T08:26:24.703Z,87.03
2023-01-13T08:28:51.055Z,86.95
2023-01-13T08:31:17.700Z,86.83
2023-01-13T08:33:44.078Z,86.81
2023-01-13T08:36:10.542Z,86.84
2023-01-13T08:38:37.147Z,86.93
2023-01-13T08:41:03.485Z,86.91
2023-01-13T08:43:29.847Z,86.99
2023-01-13T08:45:56.211Z,86.99
2023-01-13T08:48:22.567Z,87.07
2023-01-13T08:50:48.937Z,87.11
2023-01-13T08:53:15.280Z,86.93
2023-01-13T08:55:41.844Z,86.90
2023-01-13T08:58:15.787Z,86.85
2023-01-13T09:00:42.810Z,86.92
2023-01-13T09:03:09.392Z,87.09
2023-01-13T09:05:35.768Z,87.01
2023-01-13T09:08:02.119Z,86.98
2023-01-13T09:10:28.525Z,87.01
2023-01-13T09:12:54.907Z,87.33
2023-01-13T09:15:21.478Z,86.94
2023-01-13T09:17:47.769Z,86.86
2023-01-13T09:20:14.094Z,86.94
2023-01-13T09:22:40.721Z,87.02
2023-01-13T09:25:07.077Z,86.91
2023-01-13T09:27:33.414Z,86.85
2023-01-13T09:29:59.970Z,87.10
2023-01-13T09:32:26.357Z,86.90
2023-01-13T09:34:52.957Z,86.68
2023-01-13T09:37:19.306Z,86.96
2023-01-13T09:39:45.901Z,87.00
2023-01-13T09:42:12.271Z,86.98
2023-01-13T09:44:38.853Z,86.82
2023-01-13T09:47:05.185Z,86.82
2023-01-13T09:49:31.908Z,86.93
2023-01-13T09:51:58.271Z,86.86
2023-01-13T09:54:25.759Z,86.89
2023-01-13T09:56:52.118Z,87.01
2023-01-13T09:59:18.487Z,86.81
2023-01-13T10:01:44.877Z,86.80
2023-01-13T10:04:11.251Z,86.65
2023-01-13T10:06:37.584Z,86.73
2023-01-13T10:09:03.920Z,86.85
2023-01-13T10:11:30.498Z,86.83
2023-01-13T10:13:56.873Z,86.89
2023-01-13T10:16:23.545Z,86.80
2023-01-13T10:18:50.159Z,86.84
2023-01-13T10:21:16.741Z,86.68
2023-01-13T10:23:43.102Z,86.78
2023-01-13T10:26:09.464Z,86.71
2023-01-13T10:28:35.800Z,86.65
2023-01-13T10:31:02.167Z,86.94
2023-01-13T10:33:28.589Z,86.80
2023-01-13T10:35:55.159Z,86.73
2023-01-13T10:38:21.700Z,86.63
2023-01-13T10:40:48.052Z,86.36
2023-01-13T10:43:14.412Z,86.69
2023-01-13T10:45:40.782Z,86.54
2023-01-13T10:48:07.339Z,86.46
2023-01-13T10:50:33.665Z,86.34
2023-01-13T10:53:00.011Z,86.37
2023-01-13T10:55:26.378Z,86.23
2023-01-13T10:57:52.710Z,86.33
2023-01-13T11:00:19.048Z,86.29
2023-01-13T11:02:45.501Z,86.75
2023-01-13T11:05:11.910Z,86.64
2023-01-13T11:07:38.243Z,86.54
2023-01-13T11:10:04.615Z,86.37
2023-01-13T11:12:31.213Z,86.33
2023-01-13T11:14:57.580Z,86.55
2023-01-13T11:17:24.140Z,86.44
2023-01-13T11:19:50.469Z,86.56
2023-01-13T11:22:16.810Z,86.20
2023-01-13T11:24:43.185Z,86.14
2023-01-13T11:27:09.522Z,86.10
2023-01-13T11:29:35.879Z,86.19
2023-01-13T11:32:02.278Z,85.75
2023-01-13T11:34:28.646Z,85.46
2023-01-13T11:36:54.983Z,85.86
2023-01-13T11:39:21.348Z,85.75
2023-01-13T11:41:47.713Z,85.73
2023-01-13T11:44:14.279Z,85.81
2023-01-13T11:46:40.690Z,85.70
2023-01-13T11:49:07.049Z,85.93
2023-01-13T11:51:33.670Z,86.27
2023-01-13T11:54:00.280Z,86.15
2023-01-13T11:56:26.625Z,86.40
2023-01-13T11:58:52.993Z,86.16
2023-01-13T12:01:20.934Z,85.86
2023-01-13T12:03:49.333Z,86.19
2023-01-13T12:06:15.673Z,85.88
2023-01-13T12:08:42.433Z,86.01
2023-01-13T12:11:09.066Z,85.91
2023-01-13T12:13:35.415Z,86.03
2023-01-13T12:16:01.749Z,86.27
2023-01-13T12:18:28.105Z,86.15
2023-01-13T12:20:54.522Z,86.18
2023-01-13T12:23:20.900Z,85.59
2023-01-13T12:25:47.259Z,85.82
2023-01-13T12:28:13.649Z,85.63
2023-01-13T12:30:39.977Z,85.96
2023-01-13T12:33:06.316Z,85.51
2023-01-13T12:35:32.658Z,85.82
2023-01-13T12:38:00.400Z,85.94
2023-01-13T12:40:26.756Z,85.92
2023-01-13T12:42:53.086Z,85.99
2023-01-13T12:45:19.697Z,85.93
2023-01-13T12:47:46.085Z,85.84
2023-01-13T12:50:12.463Z,85.65
2023-01-13T12:52:38.883Z,85.73
2023-01-13T12:55:05.255Z,85.75
2023-01-13T12:57:31.786Z,85.70
2023-01-13T13:00:01.610Z,85.92
2023-01-13T13:02:27.972Z,86.20
2023-01-13T13:04:54.622Z,85.94
2023-01-13T13:07:20.956Z,86.15
2023-01-13T13:09:47.301Z,85.89
2023-01-13T13:12:13.664Z,85.88
2023-01-13T13:14:40.100Z,86.06
2023-01-13T13:17:06.728Z,86.07
2023-01-13T13:19:33.080Z,86.27
2023-01-13T13:21:59.444Z,86.25
2023-01-13T13:24:25.770Z,85.96
2023-01-13T13:26:52.117Z,86.47
2023-01-13T13:29:18.690Z,86.20
2023-01-13T13:31:45.020Z,86.03
2023-01-13T13:34:12.111Z,85.95
2023-01-13T13:36:38.434Z,86.23
2023-01-13T13:39:05.614Z,86.14
2023-01-13T13:41:32.203Z,86.95
2023-01-13T13:43:58.540Z,86.08
2023-01-13T13:46:24.915Z,85.98
2023-01-13T13:48:52.124Z,86.35
2023-01-13T13:51:18.492Z,86.00
2023-01-13T13:53:44.832Z,86.11
2023-01-13T13:56:11.159Z,86.03
2023-01-13T13:58:37.526Z,85.97
2023-01-13T14:01:03.997Z,86.24
2023-01-13T14:03:30.410Z,86.51
2023-01-13T14:05:56.749Z,86.15
2023-01-13T14:08:23.097Z,86.05
2023-01-13T14:10:49.508Z,85.97
2023-01-13T14:13:15.871Z,86.37
2023-01-13T14:15:42.264Z,86.13
2023-01-13T14:18:08.613Z,86.14
2023-01-13T14:20:35.178Z,85.97
2023-01-13T14:23:01.532Z,86.17
2023-01-13T14:25:27.896Z,86.25
2023-01-13T14:27:54.230Z,86.48
2023-01-13T14:30:23.075Z,86.10
2023-01-13T14:32:49.633Z,86.03
2023-01-13T14:35:15.956Z,86.07
2023-01-13T14:37:43.039Z,85.94
2023-01-13T14:40:09.430Z,85.82
2023-01-13T14:42:35.876Z,86.28
2023-01-13T14:45:02.243Z,86.70
2023-01-13T14:47:28.597Z,84.02
2023-01-13T14:49:54.977Z,84.51
2023-01-13T14:52:21.342Z,84.22
2023-01-13T14:54:47.696Z,84.41
2023-01-13T14:57:14.043Z,84.64
2023-01-13T14:59:40.599Z,84.96
2023-01-13T15:02:06.983Z,84.48
2023-01-13T15:04:33.388Z,86.31
2023-01-13T15:06:59.744Z,85.07
2023-01-13T15:09:26.097Z,85.40
2023-01-13T15:11:52.447Z,85.38
2023-01-13T15:14:18.774Z,85.06
2023-01-13T15:16:45.109Z,85.22
2023-01-13T15:19:11.412Z,85.19
2023-01-13T15:21:37.745Z,85.67
2023-01-13T15:24:04.335Z,85.10
2023-01-13T15:26:30.695Z,85.16
2023-01-13T15:28:57.037Z,85.55
2023-01-13T15:31:23.420Z,85.36
2023-01-13T15:33:49.846Z,85.28
2023-01-13T15:36:17.068Z,85.75
2023-01-13T15:38:43.403Z,85.08
2023-01-13T15:41:09.739Z,85.52
2023-01-13T15:43:36.494Z,85.19
2023-01-13T15:46:02.825Z,84.60
2023-01-13T15:48:29.383Z,84.90
2023-01-13T15:50:55.704Z,84.69
2023-01-13T15:53:22.253Z,85.43
2023-01-13T15:55:48.604Z,84.81
2023-01-13T15:58:14.987Z,84.96
2023-01-13T16:00:41.608Z,85.10
2023-01-13T16:03:07.981Z,85.11
2023-01-13T16:05:34.372Z,85.08
2023-01-13T16:08:00.730Z,85.47
2023-01-13T16:10:27.076Z,85.72
2023-01-13T16:12:53.416Z,85.50
2023-01-13T16:15:19.760Z,85.79
2023-01-13T16:17:46.262Z,85.47
2023-01-13T16:20:12.660Z,85.29
2023-01-13T16:22:39.005Z,86.23
2023-01-13T16:25:05.382Z,85.76
2023-01-13T16:27:31.741Z,86.19
2023-01-13T16:29:58.077Z,85.27
2023-01-13T16:32:24.625Z,85.61
2023-01-13T16:34:50.978Z,85.59
2023-01-13T16:37:17.366Z,85.88
2023-01-13T16:39:43.705Z,85.24
2023-01-13T16:42:10.045Z,86.76
2023-01-13T16:44:36.403Z,86.14
2023-01-13T16:47:02.743Z,86.53
2023-01-13T16:49:29.299Z,86.19
2023-01-13T16:51:55.620Z,86.26
2023-01-13T16:54:21.999Z,86.79
2023-01-13T16:56:48.345Z,86.57
2023-01-13T16:59:14.682Z,87.08
2023-01-13T17:01:41.108Z,86.66
2023-01-13T17:04:07.492Z,86.11
2023-01-13T17:06:33.818Z,86.52
2023-01-13T17:09:00.180Z,86.52
2023-01-13T17:11:26.522Z,86.62
2023-01-13T17:13:53.094Z,87.46
2023-01-13T17:16:19.996Z,86.59
2023-01-13T17:18:48.119Z,86.86
2023-01-13T17:21:14.560Z,86.28
2023-01-13T17:23:40.908Z,86.84
2023-01-13T17:26:07.262Z,87.12
2023-01-13T17:28:33.615Z,86.72
2023-01-13T17:30:59.958Z,86.74
2023-01-13T17:33:26.330Z,86.98
2023-01-13T17:35:52.716Z,87.13
2023-01-13T17:38:19.059Z,86.66
2023-01-13T17:40:45.406Z,86.89
2023-01-13T17:43:11.765Z,86.40
2023-01-13T17:45:38.118Z,86.86
2023-01-13T17:48:05.585Z,86.62
2023-01-13T17:50:31.949Z,86.38
2023-01-13T17:52:58.314Z,86.64
2023-01-13T17:55:24.646Z,87.14
2023-01-13T17:57:50.973Z,86.74
2023-01-13T18:00:17.313Z,87.18
2023-01-13T18:02:43.888Z,86.98
2023-01-13T18:05:10.270Z,86.90
2023-01-13T18:07:36.595Z,86.92
2023-01-13T18:10:02.958Z,86.68
2023-01-13T18:12:29.321Z,86.70
2023-01-13T18:14:55.671Z,86.31
2023-01-13T18:17:21.995Z,86.78
2023-01-13T18:19:48.560Z,86.50
2023-01-13T18:22:14.894Z,86.40
2023-01-13T18:24:41.236Z,85.80
2023-01-13T18:27:07.576Z,87.00
2023-01-13T18:29:33.986Z,87.59
2023-01-13T18:32:00.329Z,86.58
2023-01-13T18:34:26.665Z,86.40
2023-01-13T18:36:53.205Z,86.33
2023-01-13T18:39:19.773Z,86.85
2023-01-13T18:41:46.121Z,86.65
2023-01-13T18:44:12.446Z,87.87
2023-01-13T18:46:38.766Z,86.97
2023-01-13T18:49:05.318Z,87.26
2023-01-13T18:51:31.656Z,87.28
2023-01-13T18:54:00.330Z,87.14
2023-01-13T18:56:26.677Z,87.23
2023-01-13T18:58:53.018Z,87.29
2023-01-13T19:01:19.494Z,86.97
2023-01-13T19:03:46.967Z,87.01
2023-01-13T19:06:13.322Z,86.84
2023-01-13T19:08:39.691Z,87.15
2023-01-13T19:11:06.066Z,87.33
2023-01-13T19:13:32.610Z,86.48
2023-01-13T19:15:59.048Z,86.36
2023-01-13T19:18:25.419Z,86.64
2023-01-13T19:20:51.739Z,87.59
2023-01-13T19:23:18.096Z,87.25
2023-01-13T19:25:44.549Z,87.18
2023-01-13T19:28:11.099Z,87.49
2023-01-13T19:30:37.425Z,86.98
2023-01-13T19:33:03.801Z,87.08
2023-01-13T19:35:30.370Z,87.01
2023-01-13T19:37:56.776Z,87.23
2023-01-13T19:40:23.370Z,87.18
2023-01-13T19:42:49.721Z,87.39
2023-01-13T19:45:16.276Z,87.75
2023-01-13T19:47:42.626Z,87.44
2023-01-13T19:50:09.281Z,87.36
2023-01-13T19:52:35.652Z,86.95
2023-01-13T19:55:02.032Z,87.05
2023-01-13T19:57:28.406Z,87.47
2023-01-13T19:59:54.759Z,87.42
2023-01-13T20:02:21.108Z,86.55
2023-01-13T20:04:47.736Z,87.73
2023-01-13T20:07:14.070Z,86.81
2023-01-13T20:09:40.395Z,86.90
2023-01-13T20:12:06.716Z,86.55
2023-01-13T20:14:33.286Z,87.81
2023-01-13T20:16:59.655Z,87.30
2023-01-13T20:19:26.011Z,87.75
2023-01-13T20:21:52.355Z,87.80
2023-01-13T20:24:18.728Z,87.73
2023-01-13T20:26:45.309Z,87.50
2023-01-13T20:29:11.640Z,87.52
2023-01-13T20:31:38.265Z,86.94
2023-01-13T20:34:04.593Z,87.10
2023-01-13T20:36:31.511Z,86.50
2023-01-13T20:38:57.895Z,87.06
2023-01-13T20:41:24.252Z,87.31
2023-01-13T20:43:50.615Z,86.89
2023-01-13T20:46:16.991Z,86.32
2023-01-13T20:48:43.356Z,86.81
2023-01-13T20:51:09.711Z,87.19
2023-01-13T20:53:36.066Z,86.75
2023-01-13T20:56:02.403Z,86.78
2023-01-13T20:58:28.731Z,87.08
2023-01-13T21:00:55.163Z,86.97
2023-01-13T21:03:21.553Z,87.08
2023-01-13T21:05:47.898Z,87.11
2023-01-13T21:08:14.226Z,87.43
2023-01-13T21:10:40.554Z,87.84
2023-01-13T21:13:06.882Z,86.91
2023-01-13T21:15:33.423Z,87.71
2023-01-13T21:17:59.747Z,87.84
2023-01-13T21:20:26.098Z,87.17
2023-01-13T21:22:52.459Z,86.65
2023-01-13T21:25:18.815Z,87.14
2023-01-13T21:27:45.136Z,87.40
2023-01-13T21:30:11.482Z,87.27
2023-01-13T21:32:37.839Z,87.01
2023-01-13T21:35:04.172Z,87.03
2023-01-13T21:37:30.744Z,87.65
2023-01-13T21:39:57.090Z,87.52
2023-01-13T21:42:23.428Z,87.37
2023-01-13T21:44:50.027Z,87.24
2023-01-13T21:47:16.391Z,87.59
2023-01-13T21:49:42.740Z,88.17
2023-01-13T21:52:09.084Z,87.55
2023-01-13T21:54:35.446Z,87.66
2023-01-13T21:57:01.784Z,87.42
2023-01-13T21:59:28.117Z,86.71
2023-01-13T22:02:16.030Z,86.65
2023-01-13T22:04:41.004Z,87.12
2023-01-13T22:07:07.358Z,86.97
2023-01-13T22:09:33.699Z,87.31
2023-01-13T22:12:00.026Z,86.72
2023-01-13T22:14:26.358Z,87.47
2023-01-13T22:16:52.761Z,87.02
2023-01-13T22:19:19.335Z,86.85
2023-01-13T22:21:45.697Z,86.97
2023-01-13T22:24:12.037Z,87.03
2023-01-13T22:26:38.633Z,87.36
2023-01-13T22:29:04.986Z,87.29
2023-01-13T22:31:31.363Z,87.81
2023-01-13T22:33:57.752Z,87.34
2023-01-13T22:36:24.152Z,86.80
2023-01-13T22:38:50.493Z,86.69
2023-01-13T22:41:17.063Z,86.75
2023-01-13T22:43:43.397Z,87.31
2023-01-13T22:46:09.772Z,87.02
2023-01-13T22:48:36.173Z,86.99
2023-01-13T22:51:02.820Z,86.78
2023-01-13T22:53:29.137Z,87.47
2023-01-13T22:55:55.666Z,87.02
2023-01-13T22:58:22.008Z,87.26
2023-01-13T23:00:48.588Z,86.91
2023-01-13T23:03:15.151Z,87.48
2023-01-13T23:05:41.522Z,87.08
2023-01-13T23:08:07.847Z,87.45
2023-01-13T23:10:34.376Z,86.81
2023-01-13T23:13:00.718Z,87.88
2023-01-13T23:15:27.089Z,87.08
2023-01-13T23:17:53.660Z,87.09
2023-01-13T23:20:20.014Z,86.86
2023-01-13T23:22:46.364Z,87.76
2023-01-13T23:25:12.689Z,86.84
2023-01-13T23:27:39.049Z,86.83
2023-01-13T23:30:05.618Z,87.25
2023-01-13T23:32:31.951Z,87.09
2023-01-13T23:34:58.312Z,88.06
2023-01-13T23:37:24.634Z,86.84
2023-01-13T23:39:50.966Z,87.01
2023-01-13T23:42:17.313Z,87.45
2023-01-13T23:44:43.676Z,87.14
2023-01-13T23:47:10.279Z,87.11
2023-01-13T23:49:36.651Z,87.03
2023-01-13T23:52:02.988Z,87.25
2023-01-13T23:54:29.311Z,86.86
2023-01-13T23:56:55.667Z,87.94
2023-01-13T23:59:22.004Z,87.84
